Terminal Aerodrome Forecast
Issued by NWS

Home | Current Version | Previous Version | Text Only | Print | Product List | Glossary On
Versions: 1 2 3 4 5 6 7 8 9 10 11 12 13 14 15
000
FTUS43 KSGF 300800 AAA
TAFJLN
TAF AMD
KJLN 300851Z 3009/3106 VRB03KT P6SM BKN060 OVC110
      TEMPO 3009/3012 -SHRA BKN050 OVC070
     FM301200 VRB04KT P6SM VCSH BKN070 OVC120
     FM301700 21006KT P6SM VCSH OVC050
     FM302200 19005KT P6SM OVC025=

USA.gov is the U.S. government's official web portal to all federal, state and local government web resources and services.